createdAt,value
2023-04-17T00:02:11.232Z,102395.56
2023-04-17T00:04:38.805Z,102395.56
2023-04-17T00:07:06.586Z,102392.75
2023-04-17T00:09:33.908Z,102390.81
2023-04-17T00:12:01.470Z,102394.72
2023-04-17T00:14:28.903Z,102398.38
2023-04-17T00:16:56.129Z,102407.03
2023-04-17T00:19:23.149Z,102398.91
2023-04-17T00:21:50.195Z,102401.69
2023-04-17T00:24:17.228Z,102409.50
2023-04-17T00:26:46.682Z,102410.94
2023-04-17T00:29:13.821Z,102411.19
2023-04-17T00:31:41.023Z,102417.91
2023-04-17T00:34:08.016Z,102409.50
2023-04-17T00:36:34.921Z,102401.09
2023-04-17T00:39:01.937Z,102406.94
2023-04-17T00:41:28.947Z,102395.75
2023-04-17T00:43:55.738Z,102394.94
2023-04-17T00:46:22.787Z,102397.13
2023-04-17T00:48:49.793Z,102387.88
2023-04-17T00:51:16.848Z,102387.88
2023-04-17T00:53:43.955Z,102396.53
2023-04-17T00:56:11.112Z,102385.34
2023-04-17T00:58:37.931Z,102386.19
2023-04-17T01:01:05.725Z,102384.78
2023-04-17T01:03:32.911Z,102391.72
2023-04-17T01:05:59.937Z,102392.84
2023-04-17T01:08:26.878Z,102393.09
2023-04-17T01:10:56.121Z,102397.00
2023-04-17T01:13:22.917Z,102388.03
2023-04-17T01:15:49.693Z,102381.84
2023-04-17T01:18:16.994Z,102400.59
2023-04-17T01:20:43.791Z,102390.78
2023-04-17T01:23:10.558Z,102396.38
2023-04-17T01:25:37.338Z,102395.22
2023-04-17T01:28:04.235Z,102387.91
2023-04-17T01:30:31.304Z,102394.88
2023-04-17T01:32:58.129Z,102394.03
2023-04-17T01:35:27.232Z,102392.91
2023-04-17T01:37:54.015Z,102387.84
2023-04-17T01:40:20.881Z,102380.88
2023-04-17T01:42:47.665Z,102386.75
2023-04-17T01:45:14.415Z,102385.28
2023-04-17T01:47:41.469Z,102382.50
2023-04-17T01:50:09.436Z,102379.97
2023-04-17T01:52:36.836Z,102374.88
2023-04-17T01:55:09.492Z,102377.75
2023-04-17T01:57:36.347Z,102379.44
2023-04-17T02:00:09.554Z,102374.63
2023-04-17T02:02:36.694Z,102370.97
2023-04-17T02:05:04.194Z,102375.72
2023-04-17T02:07:31.034Z,102370.41
2023-04-17T02:09:57.757Z,102372.38
2023-04-17T02:12:24.559Z,102370.41
2023-04-17T02:14:51.404Z,102373.47
2023-04-17T02:17:18.708Z,102377.97
2023-04-17T02:19:45.526Z,102381.88
2023-04-17T02:22:17.883Z,102374.00
2023-04-17T02:24:44.807Z,102374.81
2023-04-17T02:27:12.092Z,102375.94
2023-04-17T02:29:38.901Z,102378.16
2023-04-17T02:32:05.742Z,102374.50
2023-04-17T02:34:32.487Z,102374.78
2023-04-17T02:36:59.252Z,102371.34
2023-04-17T02:39:27.559Z,102373.28
2023-04-17T02:41:54.536Z,102378.03
2023-04-17T02:44:21.488Z,102384.16
2023-04-17T02:46:48.250Z,102381.13
2023-04-17T02:49:15.100Z,102367.13
2023-04-17T02:51:41.954Z,102377.72
2023-04-17T02:54:08.810Z,102377.97
2023-04-17T02:56:35.751Z,102383.56
2023-04-17T02:59:02.612Z,102383.84
2023-04-17T03:01:30.317Z,102377.13
2023-04-17T03:03:57.470Z,102387.16
2023-04-17T03:06:24.439Z,102388.28
2023-04-17T03:08:51.952Z,102387.44
2023-04-17T03:11:18.809Z,102381.84
2023-04-17T03:13:45.932Z,102384.63
2023-04-17T03:16:13.206Z,102390.47
2023-04-17T03:18:41.654Z,102393.28
2023-04-17T03:21:08.929Z,102396.06
2023-04-17T03:23:36.460Z,102399.97
2023-04-17T03:26:08.278Z,102399.13
2023-04-17T03:28:35.237Z,102403.63
2023-04-17T03:31:02.381Z,102401.34
2023-04-17T03:33:30.544Z,102398.78
2023-04-17T03:35:57.955Z,102399.03
2023-04-17T03:38:24.889Z,102405.47
2023-04-17T03:40:52.240Z,102413.31
2023-04-17T03:43:19.270Z,102412.47
2023-04-17T03:45:46.326Z,102406.00
2023-04-17T03:48:13.436Z,102413.56
2023-04-17T03:50:40.611Z,102413.81
2023-04-17T03:53:07.830Z,102412.69
2023-04-17T03:55:35.266Z,102412.97
2023-04-17T03:58:02.175Z,102411.28
2023-04-17T04:00:29.538Z,102414.31
2023-04-17T04:02:56.570Z,102420.78
2023-04-17T04:05:23.908Z,102419.06
2023-04-17T04:07:50.913Z,102420.78
2023-04-17T04:10:18.101Z,102415.69
2023-04-17T04:12:45.446Z,102408.41
2023-04-17T04:15:12.621Z,102415.94
2023-04-17T04:17:40.154Z,102418.50
2023-04-17T04:20:09.669Z,102424.09
2023-04-17T04:22:36.534Z,102426.38
2023-04-17T04:25:04.142Z,102427.28
2023-04-17T04:27:34.424Z,102427.38
2023-04-17T04:30:02.512Z,102425.47
2023-04-17T04:32:30.080Z,102435.88
2023-04-17T04:34:59.231Z,102428.41
2023-04-17T04:37:30.387Z,102436.94
2023-04-17T04:40:11.126Z,102436.16
2023-04-17T04:42:42.786Z,102433.41
2023-04-17T04:45:10.085Z,102436.03
2023-04-17T04:47:37.368Z,102438.31
2023-04-17T04:50:04.906Z,102449.31
2023-04-17T04:52:32.586Z,102444.06
2023-04-17T04:55:00.299Z,102438.50
2023-04-17T04:57:27.714Z,102439.41
2023-04-17T04:59:54.634Z,102436.66
2023-04-17T05:02:22.706Z,102429.19
2023-04-17T05:04:50.550Z,102426.44
2023-04-17T05:07:19.585Z,102432.94
2023-04-17T05:09:47.115Z,102427.41
2023-04-17T05:12:14.556Z,102423.53
2023-04-17T05:14:41.727Z,102427.25
2023-04-17T05:17:09.181Z,102426.19
2023-04-17T05:19:37.196Z,102423.47
2023-04-17T05:22:04.647Z,102419.59
2023-04-17T05:24:31.773Z,102412.34
2023-04-17T05:26:58.769Z,102407.63
2023-04-17T05:29:26.928Z,102400.13
2023-04-17T05:31:54.494Z,102402.97
2023-04-17T05:34:21.876Z,102391.78
2023-04-17T05:36:49.944Z,102402.78
2023-04-17T05:39:19.605Z,102403.91
2023-04-17T05:41:46.940Z,102403.97
2023-04-17T05:44:14.415Z,102414.13
2023-04-17T05:46:41.853Z,102414.41
2023-04-17T05:49:09.994Z,102418.97
2023-04-17T05:51:38.084Z,102429.09
2023-04-17T05:54:05.624Z,102432.78
2023-04-17T05:56:33.514Z,102430.00
2023-04-17T05:59:00.948Z,102432.00
2023-04-17T06:01:30.772Z,102423.66
2023-04-17T06:04:00.822Z,102421.75
2023-04-17T06:06:30.720Z,102417.25
2023-04-17T06:09:02.899Z,102426.56
2023-04-17T06:11:32.036Z,102426.59
2023-04-17T06:14:04.225Z,102424.94
2023-04-17T06:16:37.466Z,102431.69
2023-04-17T06:19:05.959Z,102431.72
2023-04-17T06:21:33.246Z,102428.34
2023-04-17T06:24:00.128Z,102433.41
2023-04-17T06:26:26.962Z,102446.09
2023-04-17T06:28:55.164Z,102446.38
2023-04-17T06:31:23.396Z,102455.94
2023-04-17T06:33:51.319Z,102458.50
2023-04-17T06:36:18.206Z,102457.94
2023-04-17T06:38:45.033Z,102461.03
2023-04-17T06:41:11.967Z,102464.97
2023-04-17T06:43:38.841Z,102468.38
2023-04-17T06:46:06.537Z,102477.34
2023-04-17T06:48:33.427Z,102481.31
2023-04-17T06:51:00.321Z,102481.31
2023-04-17T06:53:27.532Z,102486.38
2023-04-17T06:55:54.838Z,102480.19
2023-04-17T06:58:21.692Z,102483.59
2023-04-17T07:00:48.666Z,102486.94
2023-04-17T07:03:16.911Z,102495.13
2023-04-17T07:05:44.724Z,102504.13
2023-04-17T07:08:11.649Z,102511.41
2023-04-17T07:10:38.482Z,102522.44
2023-04-17T07:13:05.407Z,102525.25
2023-04-17T07:15:32.403Z,102530.59
2023-04-17T07:17:59.407Z,102526.69
2023-04-17T07:20:26.481Z,102526.09
2023-04-17T07:22:53.380Z,102536.22
2023-04-17T07:25:20.346Z,102531.75
2023-04-17T07:27:47.361Z,102534.56
2023-04-17T07:30:14.382Z,102521.06
2023-04-17T07:32:41.538Z,102525.28
2023-04-17T07:35:08.888Z,102527.53
2023-04-17T07:37:37.307Z,102529.50
2023-04-17T07:40:06.891Z,102520.81
2023-04-17T07:42:33.788Z,102523.63
2023-04-17T07:45:00.737Z,102524.47
2023-04-17T07:47:27.690Z,102532.91
2023-04-17T07:49:54.671Z,102528.41
2023-04-17T07:52:21.663Z,102520.81
2023-04-17T07:54:48.601Z,102530.34
2023-04-17T07:57:15.839Z,102531.19
2023-04-17T07:59:42.854Z,102544.16
2023-04-17T08:02:10.040Z,102529.81
2023-04-17T08:04:38.129Z,102536.28
2023-04-17T08:07:05.239Z,102539.66
2023-04-17T08:09:32.176Z,102536.28
2023-04-17T08:11:59.088Z,102538.00
2023-04-17T08:14:26.023Z,102536.88
2023-04-17T08:16:52.888Z,102546.44
2023-04-17T08:19:19.897Z,102551.81
2023-04-17T08:21:48.160Z,102556.03
2023-04-17T08:24:17.818Z,102554.91
2023-04-17T08:26:46.596Z,102562.50
2023-04-17T08:29:14.405Z,102559.44
2023-04-17T08:31:41.720Z,102566.72
2023-04-17T08:34:14.239Z,102572.09
2023-04-17T08:36:43.077Z,102566.19
2023-04-17T08:39:12.921Z,102568.72
2023-04-17T08:41:43.423Z,102561.97
2023-04-17T08:44:10.545Z,102563.66
2023-04-17T08:46:38.616Z,102571.84
2023-04-17T08:49:05.848Z,102573.81
2023-04-17T08:51:33.146Z,102565.91
2023-04-17T08:54:00.096Z,102571.84
2023-04-17T08:56:28.738Z,102576.31
2023-04-17T08:58:55.600Z,102577.47
2023-04-17T09:01:27.648Z,102579.13
2023-04-17T09:03:54.980Z,102583.09
2023-04-17T09:06:22.085Z,102587.88
2023-04-17T09:08:52.409Z,102593.50
2023-04-17T09:11:22.567Z,102589.84
2023-04-17T09:13:49.913Z,102591.78
2023-04-17T09:16:17.079Z,102588.13
2023-04-17T09:18:46.458Z,102594.03
2023-04-17T09:21:18.842Z,102580.25
2023-04-17T09:23:48.549Z,102584.75
2023-04-17T09:26:16.326Z,102585.03
2023-04-17T09:29:00.655Z,102574.34
2023-04-17T09:31:36.171Z,102577.44
2023-04-17T09:34:04.775Z,102572.94
2023-04-17T09:36:33.032Z,102565.63
2023-04-17T09:39:01.353Z,102563.91
2023-04-17T09:41:33.233Z,102567.56
2023-04-17T09:44:02.400Z,102560.56
2023-04-17T09:46:32.458Z,102557.75
2023-04-17T09:49:02.349Z,102558.84
2023-04-17T09:51:29.983Z,102564.47
2023-04-17T09:54:01.501Z,102561.38
2023-04-17T09:56:29.939Z,102556.59
2023-04-17T09:58:57.899Z,102559.69
2023-04-17T10:01:30.480Z,102551.81
2023-04-17T10:03:58.397Z,102560.50
2023-04-17T10:06:27.456Z,102569.22
2023-04-17T10:08:56.987Z,102562.72
2023-04-17T10:11:29.219Z,102566.69
2023-04-17T10:14:03.443Z,102559.38
2023-04-17T10:16:33.571Z,102563.00
2023-04-17T10:19:03.727Z,102567.50
2023-04-17T10:21:31.489Z,102561.56
2023-04-17T10:23:59.716Z,102558.53
2023-04-17T10:26:28.361Z,102570.34
2023-04-17T10:28:56.205Z,102563.59
2023-04-17T10:31:26.026Z,102556.03
2023-04-17T10:33:54.617Z,102563.91
2023-04-17T10:36:24.570Z,102557.97
2023-04-17T10:38:51.562Z,102556.59
2023-04-17T10:41:22.244Z,102557.97
2023-04-17T10:43:49.556Z,102547.59
2023-04-17T10:46:16.516Z,102548.69
2023-04-17T10:48:46.603Z,102554.63
2023-04-17T10:51:16.540Z,102558.00
2023-04-17T10:53:46.926Z,102556.31
2023-04-17T10:56:18.479Z,102548.19
2023-04-17T10:58:48.602Z,102550.41
2023-04-17T11:01:17.899Z,102557.16
2023-04-17T11:03:45.358Z,102547.88
2023-04-17T11:06:12.638Z,102546.72
2023-04-17T11:08:39.879Z,102554.34
2023-04-17T11:11:12.230Z,102550.69
2023-04-17T11:13:42.341Z,102554.06
2023-04-17T11:16:09.781Z,102549.00
2023-04-17T11:18:38.076Z,102551.81
2023-04-17T11:21:05.220Z,102554.09
2023-04-17T11:23:34.470Z,102559.44
2023-04-17T11:26:01.708Z,102554.38
2023-04-17T11:28:29.420Z,102551.56
2023-04-17T11:30:56.366Z,102555.16
2023-04-17T11:33:26.590Z,102556.28
2023-04-17T11:35:54.450Z,102558.81
2023-04-17T11:38:22.575Z,102551.78
2023-04-17T11:40:51.262Z,102548.16
2023-04-17T11:43:19.000Z,102551.25
2023-04-17T11:45:46.943Z,102555.75
2023-04-17T11:48:15.248Z,102556.84
2023-04-17T11:50:43.910Z,102547.84
2023-04-17T11:53:13.486Z,102562.47
2023-04-17T11:55:40.425Z,102555.44
2023-04-17T11:58:08.625Z,102556.59
2023-04-17T12:00:35.930Z,102557.69
2023-04-17T12:03:03.625Z,102557.38
2023-04-17T12:05:31.407Z,102555.69
2023-04-17T12:08:01.899Z,102547.53
2023-04-17T12:10:35.053Z,102550.66
2023-04-17T12:13:01.987Z,102557.13
2023-04-17T12:15:28.979Z,102554.84
2023-04-17T12:17:55.989Z,102553.47
2023-04-17T12:20:24.734Z,102550.91
2023-04-17T12:22:53.103Z,102553.69
2023-04-17T12:25:20.086Z,102550.63
2023-04-17T12:27:49.229Z,102551.72
2023-04-17T12:30:17.112Z,102553.41
2023-04-17T12:32:49.075Z,102547.75
2023-04-17T12:35:16.423Z,102554.78
2023-04-17T12:37:48.616Z,102551.91
2023-04-17T12:40:17.643Z,102555.00
2023-04-17T12:42:49.287Z,102557.50
2023-04-17T12:45:17.347Z,102565.34
2023-04-17T12:47:44.611Z,102565.94
2023-04-17T12:50:12.487Z,102548.78
2023-04-17T12:52:39.914Z,102562.25
2023-04-17T12:55:08.024Z,102559.69
2023-04-17T12:57:36.093Z,102554.06
2023-04-17T13:00:06.158Z,102549.28
2023-04-17T13:02:35.448Z,102563.06
2023-04-17T13:05:03.209Z,102560.25
2023-04-17T13:07:30.644Z,102554.38
2023-04-17T13:09:58.009Z,102559.66
2023-04-17T13:12:25.330Z,102558.53
2023-04-17T13:14:52.588Z,102555.44
2023-04-17T13:17:21.335Z,102558.22
2023-04-17T13:19:48.340Z,102553.44
2023-04-17T13:22:16.419Z,102550.91
2023-04-17T13:24:43.598Z,102548.13
2023-04-17T13:27:10.868Z,102551.22
2023-04-17T13:29:37.956Z,102553.53
2023-04-17T13:32:07.450Z,102542.56
2023-04-17T13:34:34.398Z,102543.16
2023-04-17T13:37:01.372Z,102545.72
2023-04-17T13:39:28.378Z,102549.09
2023-04-17T13:41:57.697Z,102550.28
2023-04-17T13:44:25.170Z,102536.25
2023-04-17T13:46:52.923Z,102544.13
2023-04-17T13:49:20.043Z,102549.19
2023-04-17T13:51:47.185Z,102546.44
2023-04-17T13:54:14.203Z,102533.78
2023-04-17T13:56:41.238Z,102542.81
2023-04-17T13:59:08.308Z,102537.75
2023-04-17T14:01:40.773Z,102543.41
2023-04-17T14:04:08.165Z,102541.19
2023-04-17T14:06:38.622Z,102538.66
2023-04-17T14:09:06.153Z,102533.03
2023-04-17T14:11:33.100Z,102535.59
2023-04-17T14:14:00.008Z,102540.38
2023-04-17T14:16:28.146Z,102522.66
2023-04-17T14:18:57.855Z,102530.53
2023-04-17T14:21:29.451Z,102529.97
2023-04-17T14:23:57.262Z,102531.66
2023-04-17T14:26:24.229Z,102528.31
2023-04-17T14:28:53.680Z,102519.88
2023-04-17T14:31:27.331Z,102516.22
2023-04-17T14:33:54.885Z,102511.44
2023-04-17T14:36:21.911Z,102512.88
2023-04-17T14:38:51.560Z,102507.22
2023-04-17T14:41:25.144Z,102510.91
2023-04-17T14:43:52.512Z,102504.13
2023-04-17T14:46:19.508Z,102504.69
2023-04-17T14:51:17.025Z,102490.34
2023-04-17T14:53:44.202Z,102498.78
2023-04-17T14:56:11.248Z,102492.59
2023-04-17T14:58:38.319Z,102491.75
2023-04-17T15:01:05.832Z,102493.44
2023-04-17T15:03:32.841Z,102497.09
2023-04-17T15:06:01.965Z,102482.72
2023-04-17T15:08:31.398Z,102489.19
2023-04-17T15:10:59.391Z,102490.63
2023-04-17T15:13:27.075Z,102492.59
2023-04-17T15:15:55.595Z,102486.97
2023-04-17T15:18:22.899Z,102484.69
2023-04-17T15:20:51.324Z,102482.72
2023-04-17T15:23:19.316Z,102487.50
2023-04-17T15:25:46.717Z,102493.13
2023-04-17T15:28:13.714Z,102484.41
2023-04-17T15:30:43.749Z,102488.09
2023-04-17T15:33:10.936Z,102490.63
2023-04-17T15:35:38.664Z,102489.19
2023-04-17T15:38:06.662Z,102488.34
2023-04-17T15:40:34.582Z,102489.78
2023-04-17T15:43:02.428Z,102504.69
2023-04-17T15:45:33.049Z,102497.94
2023-04-17T15:48:01.674Z,102496.53
2023-04-17T15:50:29.329Z,102499.63
2023-04-17T15:52:56.921Z,102497.38
2023-04-17T15:55:27.972Z,102500.47
2023-04-17T15:57:55.312Z,102502.69
2023-04-17T16:00:22.767Z,102507.78
2023-04-17T16:02:50.971Z,102493.97
2023-04-17T16:05:19.410Z,102500.47
2023-04-17T16:07:47.399Z,102508.91
2023-04-17T16:10:15.312Z,102499.88
2023-04-17T16:12:43.938Z,102494.81
2023-04-17T16:15:14.995Z,102493.69
2023-04-17T16:17:42.519Z,102495.09
2023-04-17T16:20:11.691Z,102498.75
2023-04-17T16:22:39.185Z,102495.94
2023-04-17T16:25:07.402Z,102494.81
2023-04-17T16:27:34.885Z,102495.66
2023-04-17T16:30:03.870Z,102505.78
2023-04-17T16:32:32.312Z,102499.31
2023-04-17T16:34:59.954Z,102497.34
2023-04-17T16:37:27.624Z,102498.19
2023-04-17T16:39:54.798Z,102497.34
2023-04-17T16:42:25.387Z,102503.81
2023-04-17T16:44:52.749Z,102499.31
2023-04-17T16:47:20.169Z,102502.97
2023-04-17T16:49:48.096Z,102499.63
2023-04-17T16:52:16.748Z,102498.75
2023-04-17T16:54:44.184Z,102504.66
2023-04-17T16:57:13.880Z,102509.44
2023-04-17T16:59:43.321Z,102508.59
2023-04-17T17:02:10.765Z,102514.81
2023-04-17T17:04:38.328Z,102513.69
2023-04-17T17:07:06.601Z,102513.97
2023-04-17T17:09:36.270Z,102511.44
2023-04-17T17:12:04.066Z,102515.41
2023-04-17T17:14:31.557Z,102507.50
2023-04-17T17:16:59.307Z,102517.63
2023-04-17T17:19:26.751Z,102523.84
2023-04-17T17:21:55.640Z,102513.97
2023-04-17T17:24:23.086Z,102517.09
2023-04-17T17:26:50.507Z,102522.13
2023-04-17T17:29:18.108Z,102525.53
2023-04-17T17:31:45.370Z,102517.63
2023-04-17T17:36:42.801Z,102528.63
2023-04-17T17:39:10.427Z,102525.78
2023-04-17T17:41:37.627Z,102528.91
2023-04-17T17:44:04.913Z,102534.25
2023-04-17T17:46:34.788Z,102532.00
2023-04-17T17:49:02.195Z,102535.38
2023-04-17T17:51:32.085Z,102533.97
2023-04-17T17:53:59.229Z,102539.31
2023-04-17T17:56:26.349Z,102540.44
2023-04-17T17:58:53.471Z,102542.41
2023-04-17T18:01:23.101Z,102541.56
2023-04-17T18:03:51.893Z,102541.56
2023-04-17T18:06:21.042Z,102544.66
2023-04-17T18:08:48.271Z,102552.53
2023-04-17T18:11:17.930Z,102555.06
2023-04-17T18:13:45.308Z,102553.66
2023-04-17T18:16:12.471Z,102563.22
2023-04-17T18:18:39.540Z,102556.75
2023-04-17T18:21:10.432Z,102569.09
2023-04-17T18:23:37.713Z,102569.09
2023-04-17T18:26:04.801Z,102571.91
2023-04-17T18:28:33.059Z,102576.13
2023-04-17T18:31:00.220Z,102576.41
2023-04-17T18:33:29.421Z,102578.66
2023-04-17T18:35:56.506Z,102580.94
2023-04-17T18:38:23.387Z,102575.63
2023-04-17T18:40:53.871Z,102580.69
2023-04-17T18:43:21.043Z,102571.97
2023-04-17T18:45:47.992Z,102571.41
2023-04-17T18:48:14.988Z,102566.34
2023-04-17T18:50:42.072Z,102567.75
2023-04-17T18:53:09.130Z,102576.78
2023-04-17T18:55:37.584Z,102584.38
2023-04-17T18:58:07.345Z,102581.56
2023-04-17T19:00:34.475Z,102584.91
2023-04-17T19:03:01.578Z,102587.72
2023-04-17T19:05:28.612Z,102589.69
2023-04-17T19:07:55.701Z,102588.59
2023-04-17T19:10:23.366Z,102592.50
2023-04-17T19:12:50.335Z,102595.31
2023-04-17T19:15:17.919Z,102595.31
2023-04-17T19:17:44.854Z,102594.47
2023-04-17T19:20:12.176Z,102605.19
2023-04-17T19:22:39.119Z,102603.50
2023-04-17T19:25:08.733Z,102603.75
2023-04-17T19:27:35.873Z,102612.22
2023-04-17T19:30:02.897Z,102618.97
2023-04-17T19:32:31.533Z,102617.28
2023-04-17T19:34:58.633Z,102619.53
2023-04-17T19:37:25.626Z,102619.81
2023-04-17T19:39:56.229Z,102634.75
2023-04-17T19:42:23.695Z,102638.69
2023-04-17T19:44:50.602Z,102635.00
2023-04-17T19:47:17.650Z,102632.19
2023-04-17T19:49:45.113Z,102633.59
2023-04-17T19:52:12.264Z,102644.84
2023-04-17T19:54:39.517Z,102651.31
2023-04-17T19:57:06.496Z,102645.97
2023-04-17T19:59:33.356Z,102652.47
2023-04-17T20:02:02.588Z,102645.13
2023-04-17T20:04:29.788Z,102647.66
2023-04-17T20:06:56.916Z,102656.41
2023-04-17T20:09:24.010Z,102660.06
2023-04-17T20:11:50.889Z,102658.94
2023-04-17T20:14:19.811Z,102653.03
2023-04-17T20:16:48.956Z,102653.63
2023-04-17T20:19:18.644Z,102645.72
2023-04-17T20:21:47.203Z,102652.47
2023-04-17T20:24:16.179Z,102653.91
2023-04-17T20:26:45.903Z,102653.63
2023-04-17T20:29:13.011Z,102660.38
2023-04-17T20:31:40.311Z,102653.63
2023-04-17T20:34:07.420Z,102654.22
2023-04-17T20:36:34.287Z,102656.72
2023-04-17T20:39:01.160Z,102658.44
2023-04-17T20:41:28.666Z,102664.06
2023-04-17T20:43:58.484Z,102660.72
2023-04-17T20:46:26.305Z,102661.81
2023-04-17T20:48:53.419Z,102660.72
2023-04-17T20:51:23.435Z,102655.06
2023-04-17T20:53:50.685Z,102648.59
2023-04-17T20:56:17.947Z,102660.41
2023-04-17T20:58:45.066Z,102657.88
2023-04-17T21:01:12.051Z,102657.03
2023-04-17T21:03:39.077Z,102658.72
2023-04-17T21:06:06.208Z,102661.81
2023-04-17T21:08:33.266Z,102665.50
2023-04-17T21:11:00.862Z,102662.69
2023-04-17T21:13:27.785Z,102663.53
2023-04-17T21:15:54.783Z,102661.81
2023-04-17T21:18:21.720Z,102658.44
2023-04-17T21:20:48.755Z,102666.59
2023-04-17T21:23:15.657Z,102664.63
2023-04-17T21:25:42.619Z,102665.75
2023-04-17T21:28:09.629Z,102673.34
2023-04-17T21:30:38.836Z,102677.28
2023-04-17T21:33:06.201Z,102674.78
2023-04-17T21:35:33.203Z,102679.81
2023-04-17T21:38:00.694Z,102676.47
2023-04-17T21:40:33.129Z,102677.00
2023-04-17T21:43:03.364Z,102673.91
2023-04-17T21:45:31.550Z,102677.00
2023-04-17T21:47:58.778Z,102671.66
2023-04-17T21:50:26.008Z,102668.84
2023-04-17T21:52:52.822Z,102679.28
2023-04-17T21:55:20.069Z,102672.22
2023-04-17T21:57:46.954Z,102679.53
2023-04-17T22:00:14.659Z,102679.81
2023-04-17T22:02:41.777Z,102682.06
2023-04-17T22:05:08.920Z,102671.06
2023-04-17T22:07:44.023Z,102681.47
2023-04-17T22:10:18.546Z,102680.38
2023-04-17T22:12:45.492Z,102692.75
2023-04-17T22:15:12.772Z,102692.19
2023-04-17T22:17:39.737Z,102694.16
2023-04-17T22:20:07.541Z,102701.75
2023-04-17T22:22:34.393Z,102703.44
2023-04-17T22:25:01.404Z,102702.28
2023-04-17T22:27:29.308Z,102701.47
2023-04-17T22:29:56.586Z,102704.81
2023-04-17T22:32:23.586Z,102699.50
2023-04-17T22:34:50.451Z,102704.78
2023-04-17T22:37:18.686Z,102705.34
2023-04-17T22:39:45.824Z,102712.94
2023-04-17T22:42:12.756Z,102715.44
2023-04-17T22:44:39.655Z,102705.06
2023-04-17T22:47:06.517Z,102707.56
2023-04-17T22:49:38.241Z,102706.13
2023-04-17T22:52:06.505Z,102700.50
2023-04-17T22:54:33.902Z,102697.94
2023-04-17T22:57:00.868Z,102707.81
2023-04-17T22:59:27.758Z,102699.91
2023-04-17T23:01:54.726Z,102702.16
2023-04-17T23:04:22.748Z,102703.59
2023-04-17T23:06:49.798Z,102704.69
2023-04-17T23:09:16.829Z,102703.00
2023-04-17T23:11:43.715Z,102707.22
2023-04-17T23:14:11.590Z,102699.59
2023-04-17T23:16:38.622Z,102706.38
2023-04-17T23:19:05.589Z,102699.59
2023-04-17T23:21:32.527Z,102709.72
2023-04-17T23:23:59.501Z,102717.84
2023-04-17T23:26:26.328Z,102710.81
2023-04-17T23:28:53.151Z,102713.00
2023-04-17T23:31:19.966Z,102713.31
2023-04-17T23:33:47.001Z,102703.19
2023-04-17T23:36:13.967Z,102708.53
2023-04-17T23:38:40.895Z,102697.84
2023-04-17T23:41:07.698Z,102708.50
2023-04-17T23:43:34.586Z,102706.50
2023-04-17T23:46:01.518Z,102707.91
2023-04-17T23:48:28.493Z,102711.00
2023-04-17T23:50:55.406Z,102702.56
2023-04-17T23:53:22.283Z,102703.97
2023-04-17T23:55:49.096Z,102704.81
2023-04-17T23:58:15.965Z,102707.31
